Terminal Aerodrome Forecast
Issued by NWS

Home | Current Version | Previous Version | Graphics & Text | Print | Product List | Glossary On
Versions: 1 2 3 4 5 6 7 8 9 10 11 12 13 14
000
FTUS43 KBIS 170500
TAFJMS
TAF
KJMS 170520Z 1706/1806 02009KT P6SM SCT100
     FM171500 06008KT P6SM SCT070
     FM171800 10010KT P6SM SCT060
     FM180000 14012KT P6SM SCT040 BKN060=

USA.gov is the U.S. government's official web portal to all federal, state and local government web resources and services.